INFORMACIÓN METAR y TAF
METAR FOR EDDL
ADDS - METARS form results

(1942 UTC 02 June 2020)
Data provider http://aviationweather.gov/metar/data/
 
METAR text: EDDL 021920Z 33002KT CAVOK 23/09 Q1011 NOSIG
Conditions at: EDDL (DUESSELDORF , DE) observed 1920 UTC 02 June 2020
Temperature: 23.0°C (73°F)
Dewpoint: 9.0°C (48°F) [RH = 41%]
Pressure (altimeter): 29.85 inches Hg (1011.0 mb)
Winds: from the NNW (330 degrees) at 2 MPH (2 knots; 1.0 m/s)
Visibility: 6 or more miles (10+ km)
Ceiling: ceiling and visibility are OK
Clouds: unknown
Weather: no significant weather observed at this time

METAR text: EDDL 021850Z 32003KT CAVOK 25/08 Q1011 NOSIG
Conditions at: EDDL (DUESSELDORF , DE) observed 1850 UTC 02 June 2020
Temperature: 25.0°C (77°F)
Dewpoint: 8.0°C (46°F) [RH = 34%]
Pressure (altimeter): 29.85 inches Hg (1011.0 mb)
Winds: from the NW (320 degrees) at 3 MPH (3 knots; 1.5 m/s)
Visibility: 6 or more miles (10+ km)
Ceiling: ceiling and visibility are OK
Clouds: unknown
Weather: no significant weather observed at this time

Forecast for: EDDL (DUESSELDORF , DE)
Text: TAF EDDL 021700Z 0218/0324 28004KT CAVOK
Forecast period: 1800 UTC 02 June 2020 to 0000 UTC 04 June 2020
Forecast type: FROM: standard forecast or significant change
Winds: from the W (280 degrees) at 5 MPH (4 knots; 2.1 m/s)
Visibility: 6 or more miles 10+ km)
Ceiling: unknown
Clouds: missing
Weather: NSW  (no significant weather)

MAPA DE AEROPUERTO

INFORMACIÓN DE PISTA
Pista 05L Longitud 8858 ft Ancho 148 ft
Elevación 116 ft Umbral desplazado 984 ft Rumbo de pista 53
Pista 23R Longitud 8858 ft Ancho 148 ft
Elevación 124 ft Umbral desplazado 984 ft Rumbo de pista 233
Pista 05R Longitud 9842 ft Ancho 148 ft
Elevación 121 ft Umbral desplazado 984 ft Rumbo de pista 53
Pista 23L Longitud 9842 ft Ancho 148 ft
Elevación 138 ft Umbral desplazado 984 ft Rumbo de pista 233

FRECUANCIAS DEL AEROPUERTO
Tipo ACC Nombre LANGEN RAD Frecuencia 128.55 MHZ
Tipo APP Nombre DIR Frecuencia 128.65 MHZ
Tipo ATIS Nombre ATIS Frecuencia 123.775 MHZ
Tipo CLD Nombre CLNC DEL Frecuencia 121.775 MHZ
Tipo GND Nombre GND Frecuencia 121.9 MHZ
Tipo INFO Nombre LANGEN INF Frecuencia 129.875 MHZ
Tipo MISC Nombre DE ICING Frecuencia 135.225 MHZ
Tipo TWR Nombre TWR Frecuencia 118.3 MHZ

RADIO AYUDAS DEL AEROPUERTO
Tipo VOR-DME Nombre Dusseldorf Frecuencia 115150 KHZ